createdAt,value
2017-01-13T00:00:13.976Z,927.76
2017-01-13T00:00:28.774Z,927.71
2017-01-13T00:00:43.645Z,927.76
2017-01-13T00:00:58.384Z,927.76
2017-01-13T00:01:13.165Z,927.72
2017-01-13T00:01:27.910Z,927.69
2017-01-13T00:01:42.694Z,927.72
2017-01-13T00:01:57.455Z,927.7
2017-01-13T00:02:12.513Z,927.69
2017-01-13T00:02:27.335Z,927.78
2017-01-13T00:02:42.110Z,927.72
2017-01-13T00:02:56.828Z,927.68
2017-01-13T00:03:11.667Z,927.7
2017-01-13T00:03:26.428Z,927.68
2017-01-13T00:03:41.330Z,927.71
2017-01-13T00:03:56.192Z,927.74
2017-01-13T00:04:11.016Z,927.71
2017-01-13T00:04:25.855Z,927.69
2017-01-13T00:04:40.750Z,927.71
2017-01-13T00:04:55.542Z,927.73
2017-01-13T00:05:10.338Z,927.71
2017-01-13T00:05:25.100Z,927.73
2017-01-13T00:05:39.894Z,927.7
2017-01-13T00:05:54.746Z,927.71
2017-01-13T00:06:10.023Z,927.75
2017-01-13T00:06:24.874Z,927.73
2017-01-13T00:06:39.558Z,927.74
2017-01-13T00:06:54.312Z,927.73
2017-01-13T00:07:09.114Z,927.78
2017-01-13T00:07:23.927Z,927.74
2017-01-13T00:07:38.718Z,927.75
2017-01-13T00:07:53.457Z,927.79
2017-01-13T00:08:08.216Z,927.76
2017-01-13T00:08:22.969Z,927.73
2017-01-13T00:08:37.754Z,927.75
2017-01-13T00:08:52.603Z,927.8
2017-01-13T00:09:07.801Z,927.8
2017-01-13T00:09:22.553Z,927.81
2017-01-13T00:09:37.339Z,927.77
2017-01-13T00:09:52.207Z,927.79
2017-01-13T00:10:07.028Z,927.81
2017-01-13T00:10:22.130Z,927.9
2017-01-13T00:10:36.929Z,927.82
2017-01-13T00:10:51.724Z,927.82
2017-01-13T00:11:06.534Z,927.84
2017-01-13T00:11:21.406Z,927.83
2017-01-13T00:11:36.220Z,927.86
2017-01-13T00:11:51.046Z,927.8
2017-01-13T00:12:05.826Z,927.79
2017-01-13T00:12:20.620Z,927.81
2017-01-13T00:12:35.354Z,927.84
2017-01-13T00:12:50.140Z,927.88
2017-01-13T00:13:04.939Z,927.86
2017-01-13T00:13:19.814Z,927.89
2017-01-13T00:13:34.625Z,927.91
2017-01-13T00:13:49.423Z,927.86
2017-01-13T00:14:04.248Z,927.83
2017-01-13T00:14:19.082Z,927.94
2017-01-13T00:14:33.879Z,927.94
2017-01-13T00:14:48.634Z,927.88
2017-01-13T00:15:03.438Z,927.85
2017-01-13T00:15:18.224Z,927.91
2017-01-13T00:15:33.000Z,927.87
2017-01-13T00:15:47.711Z,927.88
2017-01-13T00:16:02.530Z,927.93
2017-01-13T00:16:17.242Z,927.91
2017-01-13T00:16:32.027Z,927.9
2017-01-13T00:16:46.816Z,927.89
2017-01-13T00:17:01.557Z,927.89
2017-01-13T00:17:16.316Z,927.95
2017-01-13T00:17:31.127Z,927.91
2017-01-13T00:17:45.884Z,927.9
2017-01-13T00:18:00.646Z,927.93
2017-01-13T00:18:15.426Z,927.92
2017-01-13T00:18:30.241Z,927.94
2017-01-13T00:18:45.009Z,927.93
2017-01-13T00:18:59.782Z,927.98
2017-01-13T00:19:14.618Z,927.95
2017-01-13T00:19:29.440Z,927.92
2017-01-13T00:19:44.237Z,927.93
2017-01-13T00:19:59.112Z,927.88
2017-01-13T00:20:13.885Z,928.01
2017-01-13T00:20:28.604Z,927.93
2017-01-13T00:20:43.420Z,927.92
2017-01-13T00:20:58.229Z,927.95
2017-01-13T00:21:13.099Z,927.85
2017-01-13T00:21:28.199Z,927.97
2017-01-13T00:21:42.990Z,927.91
2017-01-13T00:21:57.774Z,927.92
2017-01-13T00:22:12.550Z,927.9
2017-01-13T00:22:27.383Z,927.94
2017-01-13T00:22:42.229Z,927.92
2017-01-13T00:22:57.129Z,927.95
2017-01-13T00:23:11.967Z,927.92
2017-01-13T00:23:26.745Z,927.91
2017-01-13T00:23:41.557Z,927.94
2017-01-13T00:23:56.400Z,927.91
2017-01-13T00:24:11.237Z,927.94
2017-01-13T00:24:26.001Z,927.94
2017-01-13T00:24:40.795Z,927.92
2017-01-13T00:24:55.559Z,927.8
2017-01-13T00:25:10.344Z,927.88
2017-01-13T00:25:25.099Z,927.91
2017-01-13T00:25:39.846Z,927.92
2017-01-13T00:25:54.588Z,927.9
2017-01-13T00:26:09.332Z,927.94
2017-01-13T00:26:24.047Z,928.01
2017-01-13T00:26:38.788Z,927.99
2017-01-13T00:26:53.581Z,927.98
2017-01-13T00:27:08.387Z,927.97
2017-01-13T00:27:23.209Z,927.98
2017-01-13T00:27:37.946Z,927.94
2017-01-13T00:27:52.665Z,927.93
2017-01-13T00:28:07.453Z,927.98
2017-01-13T00:28:22.271Z,927.95
2017-01-13T00:28:37.054Z,927.95
2017-01-13T00:28:51.827Z,927.99
2017-01-13T00:29:06.554Z,927.99
2017-01-13T00:29:21.335Z,928
2017-01-13T00:29:36.091Z,928.04
2017-01-13T00:29:50.832Z,928.01
2017-01-13T00:30:05.608Z,927.99
2017-01-13T00:30:20.452Z,927.99
2017-01-13T00:30:35.288Z,928.01
2017-01-13T00:30:50.070Z,928.16
2017-01-13T00:31:04.848Z,928.04
2017-01-13T00:31:19.615Z,928.02
2017-01-13T00:31:34.421Z,928.06
2017-01-13T00:31:49.234Z,928.05
2017-01-13T00:32:03.982Z,928.04
2017-01-13T00:32:18.728Z,928.02
2017-01-13T00:32:33.510Z,928.09
2017-01-13T00:32:48.231Z,928.08
2017-01-13T00:33:03.045Z,928.08
2017-01-13T00:33:17.791Z,928.07
2017-01-13T00:33:32.636Z,928.06
2017-01-13T00:33:47.503Z,928.09
2017-01-13T00:34:02.326Z,928.05
2017-01-13T00:34:17.147Z,928.09
2017-01-13T00:34:31.952Z,928.15
2017-01-13T00:34:46.696Z,928.13
2017-01-13T00:35:01.475Z,928.12
2017-01-13T00:35:16.240Z,928.09
2017-01-13T00:35:31.038Z,928.15
2017-01-13T00:35:45.865Z,928.11
2017-01-13T00:36:00.618Z,928.06
2017-01-13T00:36:15.464Z,928.14
2017-01-13T00:36:30.622Z,928.08
2017-01-13T00:36:45.459Z,928.08
2017-01-13T00:37:00.194Z,928.06
2017-01-13T00:37:15.068Z,928.07
2017-01-13T00:37:29.873Z,928.08
2017-01-13T00:37:44.670Z,928.09
2017-01-13T00:37:59.390Z,928.05
2017-01-13T00:38:14.201Z,928.08
2017-01-13T00:38:28.931Z,928.09
2017-01-13T00:38:43.729Z,928.07
2017-01-13T00:38:58.539Z,928.06
2017-01-13T00:39:13.319Z,928.07
2017-01-13T00:39:28.156Z,928.06
2017-01-13T00:39:42.891Z,928.07
2017-01-13T00:39:57.752Z,928.08
2017-01-13T00:40:12.586Z,928.02
2017-01-13T00:40:27.366Z,928.09
2017-01-13T00:40:42.151Z,928.06
2017-01-13T00:40:56.993Z,928.01
2017-01-13T00:41:11.860Z,928.05
2017-01-13T00:41:26.687Z,928.09
2017-01-13T00:41:41.491Z,928.03
2017-01-13T00:41:56.316Z,928.04
2017-01-13T00:42:11.081Z,928.05
2017-01-13T00:42:25.866Z,928.02
2017-01-13T00:42:40.660Z,928.05
2017-01-13T00:42:55.414Z,928.04
2017-01-13T00:43:10.261Z,928.03
2017-01-13T00:43:25.075Z,928.02
2017-01-13T00:43:39.869Z,928.03
2017-01-13T00:43:54.623Z,928.05
2017-01-13T00:44:09.383Z,928.06
2017-01-13T00:44:24.170Z,928.05
2017-01-13T00:44:38.979Z,928.03
2017-01-13T00:44:53.743Z,928.05
2017-01-13T00:45:08.556Z,927.97
2017-01-13T00:45:23.345Z,928.03
2017-01-13T00:45:38.184Z,928.03
2017-01-13T00:45:53.011Z,927.99
2017-01-13T00:46:07.876Z,928.05
2017-01-13T00:46:22.653Z,928
2017-01-13T00:46:37.573Z,928
2017-01-13T00:46:52.331Z,928.01
2017-01-13T00:47:07.110Z,927.99
2017-01-13T00:47:21.959Z,927.99
2017-01-13T00:47:36.764Z,927.98
2017-01-13T00:47:51.608Z,928
2017-01-13T00:48:06.312Z,927.98
2017-01-13T00:48:21.055Z,927.98
2017-01-13T00:48:35.932Z,927.94
2017-01-13T00:48:50.744Z,928.01
2017-01-13T00:49:05.541Z,928.01
2017-01-13T00:49:20.292Z,927.97
2017-01-13T00:49:35.127Z,928
2017-01-13T00:49:49.908Z,928.03
2017-01-13T00:50:04.773Z,928.02
2017-01-13T00:50:19.570Z,928
2017-01-13T00:50:34.307Z,928.04
2017-01-13T00:50:49.149Z,928.03
2017-01-13T00:51:04.007Z,928.01
2017-01-13T00:51:18.849Z,928.01
2017-01-13T00:51:33.650Z,928.05
2017-01-13T00:51:48.782Z,928.02
2017-01-13T00:52:03.733Z,928.05
2017-01-13T00:52:18.477Z,928.06
2017-01-13T00:52:33.343Z,928.01
2017-01-13T00:52:48.033Z,928.02
2017-01-13T00:53:02.801Z,927.99
2017-01-13T00:53:17.621Z,928.02
2017-01-13T00:53:32.363Z,928.05
2017-01-13T00:53:47.199Z,928
2017-01-13T00:54:01.992Z,927.98
2017-01-13T00:54:16.909Z,927.97
2017-01-13T00:54:31.778Z,927.97
2017-01-13T00:54:46.678Z,928.03
2017-01-13T00:55:01.480Z,927.99
2017-01-13T00:55:16.464Z,928.07
2017-01-13T00:55:31.269Z,928.07
2017-01-13T00:55:46.087Z,928.09
2017-01-13T00:56:00.905Z,928.02
2017-01-13T00:56:15.690Z,928.04
2017-01-13T00:56:30.497Z,928.03
2017-01-13T00:56:45.556Z,928.01
2017-01-13T00:57:00.305Z,928
2017-01-13T00:57:15.129Z,928.01
2017-01-13T00:57:29.909Z,927.98
2017-01-13T00:57:44.802Z,928.04
2017-01-13T00:57:59.702Z,927.99
2017-01-13T00:58:14.565Z,927.99
2017-01-13T00:58:29.427Z,928.01
2017-01-13T00:58:44.358Z,927.99
2017-01-13T00:58:59.122Z,928.05
2017-01-13T00:59:13.907Z,928.01
2017-01-13T00:59:28.766Z,928.02
2017-01-13T00:59:43.618Z,928.03
2017-01-13T00:59:58.399Z,928.03
2017-01-13T01:00:13.350Z,927.99
2017-01-13T01:00:28.120Z,928
2017-01-13T01:00:42.992Z,928.02
2017-01-13T01:00:57.774Z,927.95
2017-01-13T01:01:12.554Z,928.03
2017-01-13T01:01:27.441Z,927.96
2017-01-13T01:01:42.336Z,927.98
2017-01-13T01:01:57.127Z,928
2017-01-13T01:02:11.957Z,928.08
2017-01-13T01:02:26.841Z,928.01
2017-01-13T01:02:41.719Z,928
2017-01-13T01:02:56.563Z,928.01
2017-01-13T01:03:11.368Z,928.05
2017-01-13T01:03:26.177Z,928.06
2017-01-13T01:03:40.999Z,928.04
2017-01-13T01:03:55.734Z,928.09
2017-01-13T01:04:10.544Z,928.01
2017-01-13T01:04:25.386Z,928.05
2017-01-13T01:04:40.175Z,928.04
2017-01-13T01:04:54.980Z,928.06
2017-01-13T01:05:09.776Z,928.04
2017-01-13T01:05:24.583Z,928.05
2017-01-13T01:05:39.363Z,928.05
2017-01-13T01:05:54.185Z,928.02
2017-01-13T01:06:08.977Z,927.98
2017-01-13T01:06:23.711Z,928.01
2017-01-13T01:06:38.460Z,928.03
2017-01-13T01:06:53.620Z,928.03
2017-01-13T01:07:08.426Z,928.05
2017-01-13T01:07:23.190Z,928.03
2017-01-13T01:07:38.016Z,928.04
2017-01-13T01:07:52.806Z,928.02
2017-01-13T01:08:07.664Z,928.05
2017-01-13T01:08:22.433Z,928.08
2017-01-13T01:08:37.248Z,928.04
2017-01-13T01:08:52.008Z,927.99
2017-01-13T01:09:06.773Z,927.99
2017-01-13T01:09:21.522Z,927.99
2017-01-13T01:09:36.290Z,928.05
2017-01-13T01:09:50.974Z,928.06
2017-01-13T01:10:05.727Z,928.06
2017-01-13T01:10:20.471Z,928.09
2017-01-13T01:10:35.260Z,928.03
2017-01-13T01:10:50.080Z,928.04
2017-01-13T01:11:04.892Z,928.02
2017-01-13T01:11:19.729Z,928.06
2017-01-13T01:11:34.516Z,928.04
2017-01-13T01:11:49.293Z,928.07
2017-01-13T01:12:04.103Z,928.02
2017-01-13T01:12:18.923Z,928.01
2017-01-13T01:12:33.758Z,928.07
2017-01-13T01:12:48.513Z,928.09
2017-01-13T01:13:03.259Z,928.02
2017-01-13T01:13:18.065Z,928.07
2017-01-13T01:13:32.870Z,928.04
2017-01-13T01:13:47.686Z,928.04
2017-01-13T01:14:02.479Z,928.07
2017-01-13T01:14:17.317Z,928.03
2017-01-13T01:14:32.079Z,928.07
2017-01-13T01:14:46.955Z,928.09
2017-01-13T01:15:01.769Z,928.07
2017-01-13T01:15:16.478Z,928.04
2017-01-13T01:15:31.331Z,928.07
2017-01-13T01:15:46.204Z,928.04
2017-01-13T01:16:00.970Z,928.19
2017-01-13T01:16:15.753Z,928.03
2017-01-13T01:16:30.564Z,928.09
2017-01-13T01:16:45.331Z,928.18
2017-01-13T01:17:00.123Z,928.1
2017-01-13T01:17:14.946Z,928.16
2017-01-13T01:17:29.695Z,928.09
2017-01-13T01:17:44.522Z,928.1
2017-01-13T01:17:59.314Z,928.1
2017-01-13T01:18:14.113Z,928.02
2017-01-13T01:18:28.902Z,928.04
2017-01-13T01:18:43.771Z,928.05
2017-01-13T01:18:58.645Z,928.17
2017-01-13T01:19:13.410Z,928.14
2017-01-13T01:19:28.245Z,928.02
2017-01-13T01:19:43.069Z,928.08
2017-01-13T01:19:57.831Z,928.12
2017-01-13T01:20:12.649Z,928.11
2017-01-13T01:20:27.411Z,928.1
2017-01-13T01:20:42.209Z,928.07
2017-01-13T01:20:57.024Z,928.08
2017-01-13T01:21:11.819Z,928.08
2017-01-13T01:21:28.086Z,928.07
2017-01-13T01:21:42.954Z,928.13
2017-01-13T01:21:58.070Z,928.1
2017-01-13T01:22:12.887Z,928.17
2017-01-13T01:22:27.755Z,928.13
2017-01-13T01:22:42.615Z,928.08
2017-01-13T01:22:57.438Z,928.14
2017-01-13T01:23:12.271Z,928.15
2017-01-13T01:23:27.126Z,928.17
2017-01-13T01:23:41.896Z,928.17
2017-01-13T01:23:56.702Z,928.18
2017-01-13T01:24:11.522Z,928.14
2017-01-13T01:24:26.292Z,928.18
2017-01-13T01:24:41.094Z,928.16
2017-01-13T01:24:55.880Z,928.19
2017-01-13T01:25:10.731Z,928.16
2017-01-13T01:25:25.576Z,928.18
2017-01-13T01:25:40.421Z,928.19
2017-01-13T01:25:55.189Z,928.2
2017-01-13T01:26:10.027Z,928.22
2017-01-13T01:26:24.887Z,928.21
2017-01-13T01:26:39.677Z,928.2
2017-01-13T01:26:54.424Z,928.19
2017-01-13T01:27:09.209Z,928.21
2017-01-13T01:27:23.959Z,928.23
2017-01-13T01:27:38.842Z,928.23
2017-01-13T01:27:53.866Z,928.19
2017-01-13T01:28:08.726Z,928.24
2017-01-13T01:28:23.481Z,928.21
2017-01-13T01:28:38.263Z,928.21
2017-01-13T01:28:53.105Z,928.22
2017-01-13T01:29:07.870Z,928.25
2017-01-13T01:29:22.695Z,928.26
2017-01-13T01:29:37.510Z,928.31
2017-01-13T01:29:52.313Z,928.28
2017-01-13T01:30:07.209Z,928.22
2017-01-13T01:30:21.949Z,928.27
2017-01-13T01:30:36.688Z,928.28
2017-01-13T01:30:51.453Z,928.19
2017-01-13T01:31:06.240Z,928.26
2017-01-13T01:31:21.105Z,928.24
2017-01-13T01:31:35.919Z,928.21
2017-01-13T01:31:50.688Z,928.22
2017-01-13T01:32:05.487Z,928.21
2017-01-13T01:32:20.340Z,928.23
2017-01-13T01:32:35.204Z,928.23
2017-01-13T01:32:49.996Z,928.18
2017-01-13T01:33:04.842Z,928.2
2017-01-13T01:33:19.704Z,928.24
2017-01-13T01:33:34.551Z,928.25
2017-01-13T01:33:49.387Z,928.22
2017-01-13T01:34:04.206Z,928.23
2017-01-13T01:34:18.992Z,928.16
2017-01-13T01:34:33.884Z,928.2
2017-01-13T01:34:48.727Z,928.18
2017-01-13T01:35:03.548Z,928.2
2017-01-13T01:35:18.367Z,928.22
2017-01-13T01:35:33.182Z,928.17
2017-01-13T01:35:48.006Z,928.21
2017-01-13T01:36:02.795Z,928.19
2017-01-13T01:36:17.515Z,928.17
2017-01-13T01:36:32.415Z,928.15
2017-01-13T01:36:47.236Z,928.15
2017-01-13T01:37:02.333Z,928.17
2017-01-13T01:37:17.120Z,928.17
2017-01-13T01:37:31.909Z,928.14
2017-01-13T01:37:46.693Z,928.13
2017-01-13T01:38:01.519Z,928.12
2017-01-13T01:38:16.315Z,928.16
2017-01-13T01:38:31.130Z,928.12
2017-01-13T01:38:45.984Z,928.19
2017-01-13T01:39:00.771Z,928.16
2017-01-13T01:39:15.624Z,928.13
2017-01-13T01:39:30.480Z,928.11
2017-01-13T01:39:45.173Z,928.18
2017-01-13T01:39:59.966Z,928.14
2017-01-13T01:40:14.763Z,928.12
2017-01-13T01:40:29.617Z,928.1
2017-01-13T01:40:44.430Z,928.13
2017-01-13T01:40:59.218Z,928.12
2017-01-13T01:41:14.000Z,928.12
2017-01-13T01:41:28.808Z,928.1
2017-01-13T01:41:43.662Z,928.08
2017-01-13T01:41:58.470Z,928.12
2017-01-13T01:42:13.238Z,928.2
2017-01-13T01:42:27.993Z,928.14
2017-01-13T01:42:42.761Z,928.12
2017-01-13T01:42:57.582Z,928.19
2017-01-13T01:43:12.393Z,928.12
2017-01-13T01:43:27.254Z,928.18
2017-01-13T01:43:42.012Z,928.14
2017-01-13T01:43:56.820Z,928.16
2017-01-13T01:44:11.636Z,928.13
2017-01-13T01:44:26.461Z,928.14
2017-01-13T01:44:41.275Z,928.12
2017-01-13T01:44:56.094Z,928.11
2017-01-13T01:45:10.878Z,928.14
2017-01-13T01:45:25.648Z,928.14
2017-01-13T01:45:40.426Z,928.16
2017-01-13T01:45:55.193Z,928.19
2017-01-13T01:46:09.999Z,928.18
2017-01-13T01:46:24.817Z,928.22
2017-01-13T01:46:39.635Z,928.28
2017-01-13T01:46:54.443Z,928.22
2017-01-13T01:47:09.294Z,928.23
2017-01-13T01:47:24.039Z,928.21
2017-01-13T01:47:38.828Z,928.24
2017-01-13T01:47:53.640Z,928.23
2017-01-13T01:48:08.460Z,928.37
2017-01-13T01:48:23.343Z,928.31
2017-01-13T01:48:38.176Z,928.33
2017-01-13T01:48:52.965Z,928.27
2017-01-13T01:49:07.756Z,928.26
2017-01-13T01:49:22.519Z,928.32
2017-01-13T01:49:37.293Z,928.24
2017-01-13T01:49:52.120Z,928.23
2017-01-13T01:50:06.939Z,928.25
2017-01-13T01:50:21.842Z,928.25
2017-01-13T01:50:36.701Z,928.28
2017-01-13T01:50:51.432Z,928.24
2017-01-13T01:51:06.233Z,928.36
2017-01-13T01:51:20.991Z,928.3
2017-01-13T01:51:35.800Z,928.35
2017-01-13T01:51:50.580Z,928.28
2017-01-13T01:52:05.563Z,928.26
2017-01-13T01:52:20.363Z,928.28
2017-01-13T01:52:35.202Z,928.33
2017-01-13T01:52:50.004Z,928.24
2017-01-13T01:53:05.055Z,928.3
2017-01-13T01:53:19.883Z,928.29
2017-01-13T01:53:34.673Z,928.21
2017-01-13T01:53:49.482Z,928.22
2017-01-13T01:54:04.257Z,928.28
2017-01-13T01:54:19.231Z,928.28
2017-01-13T01:54:34.026Z,928.21
2017-01-13T01:54:48.862Z,928.18
2017-01-13T01:55:03.753Z,928.16
2017-01-13T01:55:18.541Z,928.16
2017-01-13T01:55:33.412Z,928.15
2017-01-13T01:55:48.197Z,928.22
2017-01-13T01:56:03.015Z,928.23
2017-01-13T01:56:17.881Z,928.27
2017-01-13T01:56:32.635Z,928.21
2017-01-13T01:56:47.507Z,928.28
2017-01-13T01:57:02.298Z,928.21
2017-01-13T01:57:17.102Z,928.18
2017-01-13T01:57:31.925Z,928.22
2017-01-13T01:57:46.761Z,928.3
2017-01-13T01:58:01.563Z,928.35
2017-01-13T01:58:16.440Z,928.19
2017-01-13T01:58:31.204Z,928.12
2017-01-13T01:58:46.022Z,928.19
2017-01-13T01:59:00.811Z,928.2
2017-01-13T01:59:15.643Z,928.19
2017-01-13T01:59:30.424Z,928.19
2017-01-13T01:59:45.259Z,928.13
2017-01-13T02:00:00.125Z,928.17
2017-01-13T02:00:14.966Z,928.26
2017-01-13T02:00:29.772Z,928.18
2017-01-13T02:00:44.576Z,928.23
2017-01-13T02:00:59.376Z,928.16
2017-01-13T02:01:14.153Z,928.18
2017-01-13T02:01:28.959Z,928.17
2017-01-13T02:01:43.795Z,928.14
2017-01-13T02:01:58.566Z,928.18
2017-01-13T02:02:13.309Z,928.18
2017-01-13T02:02:28.082Z,928.21
2017-01-13T02:02:42.919Z,928.24
2017-01-13T02:02:57.747Z,928.13
2017-01-13T02:03:12.523Z,928.15
2017-01-13T02:03:27.335Z,928.23
2017-01-13T02:03:42.064Z,928.25
2017-01-13T02:03:56.845Z,928.19
2017-01-13T02:04:11.713Z,928.18
2017-01-13T02:04:26.490Z,928.21
2017-01-13T02:04:41.297Z,928.2
2017-01-13T02:04:56.092Z,928.19
2017-01-13T02:05:10.816Z,928.17
2017-01-13T02:05:25.568Z,928.16
2017-01-13T02:05:40.366Z,928.16
2017-01-13T02:05:55.130Z,928.17
2017-01-13T02:06:09.916Z,928.16
2017-01-13T02:06:24.783Z,928.14
2017-01-13T02:06:39.624Z,928.14
2017-01-13T02:06:54.354Z,928.17
2017-01-13T02:07:09.080Z,928.15
2017-01-13T02:07:24.287Z,928.15
2017-01-13T02:07:39.035Z,928.15
2017-01-13T02:07:53.815Z,928.15
2017-01-13T02:08:08.613Z,928.24
2017-01-13T02:08:23.408Z,928.18
2017-01-13T02:08:38.167Z,928.15
2017-01-13T02:08:52.965Z,928.18
2017-01-13T02:09:07.735Z,928.2
2017-01-13T02:09:22.556Z,928.22
2017-01-13T02:09:37.303Z,928.16
2017-01-13T02:09:52.115Z,928.17
2017-01-13T02:10:06.948Z,928.18
2017-01-13T02:10:21.810Z,928.16
2017-01-13T02:10:36.563Z,928.2
2017-01-13T02:10:51.409Z,928.21
2017-01-13T02:11:06.250Z,928.19
2017-01-13T02:11:21.080Z,928.18
2017-01-13T02:11:35.864Z,928.17
2017-01-13T02:11:50.638Z,928.18
2017-01-13T02:12:05.399Z,928.18
2017-01-13T02:12:20.215Z,928.19
2017-01-13T02:12:35.115Z,928.15
2017-01-13T02:12:49.893Z,928.16
2017-01-13T02:13:04.674Z,928.13
2017-01-13T02:13:19.406Z,928.22
2017-01-13T02:13:34.153Z,928.24
2017-01-13T02:13:48.944Z,928.2
2017-01-13T02:14:03.707Z,928.19
2017-01-13T02:14:18.520Z,928.21
2017-01-13T02:14:33.305Z,928.17
2017-01-13T02:14:48.140Z,928.12
2017-01-13T02:15:02.860Z,928.17
2017-01-13T02:15:17.642Z,928.17
2017-01-13T02:15:32.462Z,928.17
2017-01-13T02:15:47.235Z,928.17
2017-01-13T02:16:02.719Z,928.13
2017-01-13T02:16:17.536Z,928.17
2017-01-13T02:16:32.265Z,928.15
2017-01-13T02:16:47.084Z,928.18
2017-01-13T02:17:01.964Z,928.15
2017-01-13T02:17:16.798Z,928.15
2017-01-13T02:17:31.672Z,928.14
2017-01-13T02:17:46.420Z,928.15
2017-01-13T02:18:01.194Z,928.16
2017-01-13T02:18:15.999Z,928.14
2017-01-13T02:18:30.781Z,928.1
2017-01-13T02:18:45.612Z,928.13
2017-01-13T02:19:00.432Z,928.08
2017-01-13T02:19:15.300Z,928.1
2017-01-13T02:19:30.115Z,928.09
2017-01-13T02:19:44.973Z,928.08
2017-01-13T02:19:59.808Z,928.07
2017-01-13T02:20:14.689Z,928.1
2017-01-13T02:20:29.511Z,928.06
2017-01-13T02:20:44.360Z,928.1
2017-01-13T02:20:59.122Z,928.09
2017-01-13T02:21:14.002Z,928.13
2017-01-13T02:21:28.853Z,928.08
2017-01-13T02:21:43.722Z,928.06
2017-01-13T02:21:58.487Z,928.06
2017-01-13T02:22:13.225Z,928.08
2017-01-13T02:22:28.217Z,928.1
2017-01-13T02:22:43.001Z,928.12
2017-01-13T02:22:57.831Z,928.08
2017-01-13T02:23:12.591Z,928.08
2017-01-13T02:23:27.328Z,928.11
2017-01-13T02:23:42.167Z,928.09
2017-01-13T02:23:56.910Z,928.04
2017-01-13T02:24:11.715Z,928.04
2017-01-13T02:24:26.562Z,928.11
2017-01-13T02:24:41.364Z,928.14
2017-01-13T02:24:56.167Z,928.11
2017-01-13T02:25:11.001Z,928.11
2017-01-13T02:25:25.841Z,928.07
2017-01-13T02:25:40.646Z,928.11
2017-01-13T02:25:55.452Z,928.05
2017-01-13T02:26:10.215Z,928.1
2017-01-13T02:26:24.961Z,928.13
2017-01-13T02:26:39.758Z,928.11
2017-01-13T02:26:54.547Z,928.08
2017-01-13T02:27:09.427Z,928.05
2017-01-13T02:27:24.217Z,928.04
2017-01-13T02:27:39.041Z,928.06
2017-01-13T02:27:53.831Z,928.07
2017-01-13T02:28:08.603Z,928.11
2017-01-13T02:28:23.476Z,928.07
2017-01-13T02:28:38.261Z,928.08
2017-01-13T02:28:53.067Z,928.08
2017-01-13T02:29:07.840Z,928.06
2017-01-13T02:29:22.636Z,928.09
2017-01-13T02:29:37.489Z,928.02
2017-01-13T02:29:52.338Z,928.01
2017-01-13T02:30:07.158Z,928.01
2017-01-13T02:30:21.963Z,928.01
2017-01-13T02:30:36.745Z,928
2017-01-13T02:30:51.533Z,928.02
2017-01-13T02:31:06.334Z,928.06
2017-01-13T02:31:21.170Z,928.01
2017-01-13T02:31:35.972Z,928
2017-01-13T02:31:50.738Z,927.97
2017-01-13T02:32:05.531Z,928
2017-01-13T02:32:20.321Z,928
2017-01-13T02:32:35.111Z,928.01
2017-01-13T02:32:49.941Z,928.01
2017-01-13T02:33:04.748Z,928.02
2017-01-13T02:33:19.497Z,928.03
2017-01-13T02:33:34.293Z,927.99
2017-01-13T02:33:49.092Z,927.97
2017-01-13T02:34:03.951Z,928.04
2017-01-13T02:34:18.790Z,928.04
2017-01-13T02:34:33.606Z,928.01
2017-01-13T02:34:48.330Z,928.02
2017-01-13T02:35:03.127Z,927.98
2017-01-13T02:35:17.951Z,928.03
2017-01-13T02:35:32.728Z,928.04
2017-01-13T02:35:47.558Z,927.99
2017-01-13T02:36:02.420Z,928
2017-01-13T02:36:17.234Z,928.01
2017-01-13T02:36:32.074Z,928
2017-01-13T02:36:46.895Z,927.96
2017-01-13T02:37:01.722Z,928.02
2017-01-13T02:37:16.561Z,927.98
2017-01-13T02:37:31.643Z,928
2017-01-13T02:37:46.506Z,927.95
2017-01-13T02:38:01.335Z,928.01
2017-01-13T02:38:16.164Z,927.98
2017-01-13T02:38:30.926Z,928.01
2017-01-13T02:38:45.767Z,928.02
2017-01-13T02:39:00.587Z,928.06
2017-01-13T02:39:15.418Z,927.99
2017-01-13T02:39:30.221Z,928.02
2017-01-13T02:39:45.032Z,928.01
2017-01-13T02:39:59.892Z,928
2017-01-13T02:40:14.680Z,928.01
2017-01-13T02:40:29.485Z,928.06
2017-01-13T02:40:44.309Z,927.99
2017-01-13T02:40:59.110Z,928.03
2017-01-13T02:41:13.888Z,928.03
2017-01-13T02:41:28.689Z,928.01
2017-01-13T02:41:43.498Z,928.04
2017-01-13T02:41:58.308Z,928.03
2017-01-13T02:42:13.111Z,928.04
2017-01-13T02:42:27.950Z,928.03
2017-01-13T02:42:42.720Z,928.01
2017-01-13T02:42:57.502Z,928.02
2017-01-13T02:43:12.302Z,927.99
2017-01-13T02:43:27.055Z,928.03
2017-01-13T02:43:41.855Z,928.04
2017-01-13T02:43:56.667Z,928.04
2017-01-13T02:44:11.498Z,927.99
2017-01-13T02:44:26.363Z,928.03
2017-01-13T02:44:41.118Z,928.09
2017-01-13T02:44:55.911Z,927.99
2017-01-13T02:45:10.773Z,928.03
2017-01-13T02:45:25.580Z,928.04
2017-01-13T02:45:40.335Z,928.09
2017-01-13T02:45:55.080Z,928.02
2017-01-13T02:46:09.881Z,928.03
2017-01-13T02:46:24.653Z,928.08
2017-01-13T02:46:39.482Z,928.05
2017-01-13T02:46:54.217Z,928.03
2017-01-13T02:47:09.029Z,927.96
2017-01-13T02:47:23.906Z,928.02
2017-01-13T02:47:38.720Z,928.01
2017-01-13T02:47:53.548Z,927.99
2017-01-13T02:48:08.341Z,927.96
2017-01-13T02:48:23.104Z,927.95
2017-01-13T02:48:37.884Z,927.96
2017-01-13T02:48:52.710Z,927.97
2017-01-13T02:49:07.488Z,927.86
2017-01-13T02:49:22.257Z,927.94
2017-01-13T02:49:37.082Z,927.93
2017-01-13T02:49:51.939Z,927.93
2017-01-13T02:50:06.758Z,927.87
2017-01-13T02:50:22.301Z,927.9
2017-01-13T02:50:38.434Z,927.9
2017-01-13T02:50:54.653Z,927.9
2017-01-13T02:51:10.690Z,927.87
2017-01-13T02:51:26.213Z,927.88
2017-01-13T02:51:41.368Z,927.95
2017-01-13T02:51:56.714Z,927.87
2017-01-13T02:52:11.828Z,927.9
2017-01-13T02:52:26.838Z,927.89
2017-01-13T02:52:42.177Z,928
2017-01-13T02:52:57.313Z,927.93
2017-01-13T02:53:12.185Z,927.88
2017-01-13T02:53:26.993Z,927.89
2017-01-13T02:53:41.819Z,927.92
2017-01-13T02:53:56.661Z,927.96
2017-01-13T02:54:11.380Z,927.92
2017-01-13T02:54:26.227Z,927.96
2017-01-13T02:54:41.101Z,927.95
2017-01-13T02:54:55.854Z,927.91
2017-01-13T02:55:10.625Z,927.9
2017-01-13T02:55:25.464Z,927.87
2017-01-13T02:55:40.251Z,927.86
2017-01-13T02:55:55.062Z,927.92
2017-01-13T02:56:09.796Z,927.89
2017-01-13T02:56:24.627Z,927.88
2017-01-13T02:56:39.462Z,927.9
2017-01-13T02:56:54.271Z,927.91
2017-01-13T02:57:09.078Z,927.9
2017-01-13T02:57:23.950Z,927.83
2017-01-13T02:57:38.717Z,927.88
2017-01-13T02:57:53.494Z,927.88
2017-01-13T02:58:08.292Z,927.88
2017-01-13T02:58:23.056Z,927.87
2017-01-13T02:58:37.851Z,927.89
2017-01-13T02:58:52.682Z,927.82
2017-01-13T02:59:07.444Z,927.88
2017-01-13T02:59:22.236Z,927.85
2017-01-13T02:59:37.072Z,927.85
2017-01-13T02:59:51.892Z,927.84
2017-01-13T03:00:06.687Z,927.82
2017-01-13T03:00:21.423Z,927.83
2017-01-13T03:00:36.215Z,927.79
2017-01-13T03:00:50.952Z,927.85
2017-01-13T03:01:05.735Z,927.77
2017-01-13T03:01:20.492Z,927.81
2017-01-13T03:01:35.269Z,927.79
2017-01-13T03:01:50.133Z,927.78
2017-01-13T03:02:04.886Z,927.73
2017-01-13T03:02:19.720Z,927.74
2017-01-13T03:02:34.555Z,927.74
2017-01-13T03:02:49.344Z,927.72
2017-01-13T03:03:04.084Z,927.81
2017-01-13T03:03:18.843Z,927.74
2017-01-13T03:03:33.676Z,927.75
2017-01-13T03:03:48.434Z,927.73
2017-01-13T03:04:03.237Z,927.77
2017-01-13T03:04:18.055Z,927.73
2017-01-13T03:04:32.809Z,927.79
2017-01-13T03:04:47.665Z,927.78
2017-01-13T03:05:02.479Z,927.77
2017-01-13T03:05:17.283Z,927.76
2017-01-13T03:05:32.073Z,927.76
2017-01-13T03:05:46.896Z,927.77